createdAt,value
2022-09-12T00:02:17.618Z,99.74
2022-09-12T00:05:20.311Z,99.97
2022-09-12T00:08:23.095Z,100.00
2022-09-12T00:11:26.546Z,99.90
2022-09-12T00:14:29.039Z,100.00
2022-09-12T00:17:34.591Z,100.00
2022-09-12T00:20:42.285Z,100.00
2022-09-12T00:23:45.964Z,100.00
2022-09-12T00:26:48.869Z,100.00
2022-09-12T00:29:51.425Z,100.00
2022-09-12T00:32:54.893Z,100.00
2022-09-12T00:35:57.322Z,100.00
2022-09-12T00:38:59.815Z,100.00
2022-09-12T00:42:02.248Z,100.00
2022-09-12T00:45:05.261Z,100.00
2022-09-12T00:48:16.395Z,100.00
2022-09-12T00:51:19.394Z,100.00
2022-09-12T00:54:25.009Z,100.00
2022-09-12T00:57:31.519Z,100.00
2022-09-12T01:00:34.046Z,100.00
2022-09-12T01:03:36.597Z,100.00
2022-09-12T01:06:43.373Z,100.00
2022-09-12T01:09:46.293Z,100.00
2022-09-12T01:12:49.167Z,100.00
2022-09-12T01:15:52.806Z,100.00
2022-09-12T01:19:04.269Z,100.00
2022-09-12T01:22:22.014Z,100.00
2022-09-12T01:25:57.037Z,100.00
2022-09-12T01:29:23.465Z,100.00
2022-09-12T01:32:35.120Z,100.00
2022-09-12T01:35:55.069Z,100.00
2022-09-12T01:39:01.583Z,100.00
2022-09-12T01:42:10.387Z,100.00
2022-09-12T01:45:28.586Z,100.00
2022-09-12T01:48:57.441Z,100.00
2022-09-12T01:52:21.727Z,100.00
2022-09-12T01:55:28.502Z,100.00
2022-09-12T01:58:39.178Z,100.00
2022-09-12T02:01:47.709Z,100.00
2022-09-12T02:05:01.683Z,100.00
2022-09-12T02:08:12.163Z,100.00
2022-09-12T02:11:14.674Z,100.00
2022-09-12T02:14:24.454Z,100.00
2022-09-12T02:17:27.201Z,100.00
2022-09-12T02:20:47.464Z,100.00
2022-09-12T02:23:56.987Z,100.00
2022-09-12T02:27:10.354Z,100.00
2022-09-12T02:30:16.646Z,100.00
2022-09-12T02:33:27.731Z,100.00
2022-09-12T02:36:43.632Z,100.00
2022-09-12T02:39:46.783Z,100.00
2022-09-12T02:42:49.739Z,100.00
2022-09-12T02:45:52.391Z,100.00
2022-09-12T02:48:56.829Z,100.00
2022-09-12T02:52:00.169Z,100.00
2022-09-12T02:55:05.060Z,100.00
2022-09-12T02:58:12.293Z,100.00
2022-09-12T03:01:23.902Z,100.00
2022-09-12T03:04:47.948Z,100.00
2022-09-12T03:07:57.435Z,100.00
2022-09-12T03:11:14.695Z,100.00
2022-09-12T03:14:29.867Z,100.00
2022-09-12T03:17:56.575Z,100.00
2022-09-12T03:21:37.571Z,100.00
2022-09-12T03:25:03.307Z,100.00
2022-09-12T03:28:09.506Z,100.00
2022-09-12T03:31:16.812Z,100.00
2022-09-12T03:34:20.267Z,100.00
2022-09-12T03:37:22.713Z,100.00
2022-09-12T03:40:25.147Z,100.00
2022-09-12T03:43:27.607Z,100.00
2022-09-12T03:46:30.093Z,100.00
2022-09-12T03:49:32.568Z,100.00
2022-09-12T03:52:35.172Z,100.00
2022-09-12T03:55:39.077Z,100.00
2022-09-12T03:58:41.634Z,100.00
2022-09-12T04:01:44.094Z,100.00
2022-09-12T04:04:48.803Z,100.00
2022-09-12T04:07:51.974Z,100.00
2022-09-12T04:10:54.412Z,100.00
2022-09-12T04:13:56.899Z,100.00
2022-09-12T04:16:59.377Z,100.00
2022-09-12T04:20:02.106Z,100.00
2022-09-12T04:23:04.557Z,100.00
2022-09-12T04:26:07.655Z,100.00
2022-09-12T04:29:11.970Z,100.00
2022-09-12T04:32:15.276Z,100.00
2022-09-12T04:35:17.768Z,100.00
2022-09-12T04:38:20.426Z,100.00
2022-09-12T04:41:25.234Z,100.00
2022-09-12T04:44:27.700Z,100.00
2022-09-12T04:47:30.127Z,100.00
2022-09-12T04:50:32.512Z,100.00
2022-09-12T04:53:35.737Z,100.00
2022-09-12T04:56:40.677Z,100.00
2022-09-12T04:59:43.183Z,100.00
2022-09-12T05:02:45.663Z,100.00
2022-09-12T05:05:48.181Z,100.00
2022-09-12T05:08:52.215Z,100.00
2022-09-12T05:12:09.938Z,100.00
2022-09-12T05:15:12.539Z,100.00
2022-09-12T05:18:15.031Z,100.00
2022-09-12T05:21:20.701Z,100.00
2022-09-12T05:24:23.192Z,99.69
2022-09-12T05:27:25.646Z,99.10
2022-09-12T05:30:28.076Z,98.37
2022-09-12T05:33:31.443Z,97.39
2022-09-12T05:36:34.102Z,97.12
2022-09-12T05:39:36.611Z,96.36
2022-09-12T05:42:39.216Z,95.92
2022-09-12T05:45:42.307Z,95.55
2022-09-12T05:48:46.432Z,94.95
2022-09-12T05:51:49.069Z,94.90
2022-09-12T05:54:51.666Z,94.94
2022-09-12T05:57:54.318Z,95.23
2022-09-12T06:01:01.351Z,95.24
2022-09-12T06:04:06.378Z,95.38
2022-09-12T06:07:09.136Z,94.72
2022-09-12T06:10:12.077Z,93.74
2022-09-12T06:13:14.462Z,92.75
2022-09-12T06:16:21.822Z,91.51
2022-09-12T06:19:25.630Z,91.17
2022-09-12T06:22:28.316Z,90.94
2022-09-12T06:25:30.754Z,91.37
2022-09-12T06:28:35.529Z,90.38
2022-09-12T06:31:39.267Z,90.18
2022-09-12T06:34:41.718Z,89.89
2022-09-12T06:37:44.973Z,89.00
2022-09-12T06:40:47.419Z,88.60
2022-09-12T06:43:50.386Z,87.84
2022-09-12T06:46:54.268Z,87.87
2022-09-12T06:49:56.669Z,87.72
2022-09-12T06:52:59.121Z,87.46
2022-09-12T06:56:03.974Z,87.57
2022-09-12T06:59:06.903Z,86.81
2022-09-12T07:02:10.282Z,85.98
2022-09-12T07:05:14.052Z,85.66
2022-09-12T07:08:16.453Z,85.12
2022-09-12T07:11:24.611Z,84.55
2022-09-12T07:14:27.007Z,83.40
2022-09-12T07:17:29.506Z,83.09
2022-09-12T07:20:35.925Z,82.54
2022-09-12T07:23:40.143Z,82.51
2022-09-12T07:26:42.775Z,82.58
2022-09-12T07:29:46.951Z,81.94
2022-09-12T07:32:54.063Z,80.70
2022-09-12T07:36:01.213Z,80.80
2022-09-12T07:39:03.713Z,79.68
2022-09-12T07:42:07.158Z,80.93
2022-09-12T07:45:10.418Z,78.28
2022-09-12T07:48:12.992Z,78.62
2022-09-12T07:51:15.520Z,78.35
2022-09-12T07:54:18.520Z,76.88
2022-09-12T07:57:21.399Z,76.05
2022-09-12T08:00:23.857Z,75.12
2022-09-12T08:03:26.531Z,74.40
2022-09-12T08:06:32.192Z,72.68
2022-09-12T08:09:35.076Z,74.84
2022-09-12T08:12:37.523Z,74.91
2022-09-12T08:15:39.991Z,75.55
2022-09-12T08:18:42.547Z,76.16
2022-09-12T08:21:45.100Z,74.81
2022-09-12T08:24:48.335Z,74.40
2022-09-12T08:27:51.093Z,74.38
2022-09-12T08:30:54.691Z,74.36
2022-09-12T08:33:58.314Z,74.42
2022-09-12T08:37:01.021Z,74.28
2022-09-12T08:40:06.904Z,71.57
2022-09-12T08:43:45.724Z,71.87
2022-09-12T08:47:12.840Z,68.76
2022-09-12T08:50:19.882Z,69.08
2022-09-12T08:53:23.551Z,68.63
2022-09-12T08:56:31.585Z,67.92
2022-09-12T08:59:38.489Z,66.68
2022-09-12T09:03:00.230Z,66.59
2022-09-12T09:06:51.079Z,66.95
2022-09-12T09:10:09.355Z,66.00
2022-09-12T09:13:37.920Z,64.31
2022-09-12T09:16:43.035Z,64.68
2022-09-12T09:19:59.958Z,63.54
2022-09-12T09:23:17.598Z,66.23
2022-09-12T09:26:27.457Z,66.08
2022-09-12T09:29:41.399Z,65.04
2022-09-12T09:32:46.207Z,63.26
2022-09-12T09:35:56.959Z,61.85
2022-09-12T09:39:13.550Z,64.19
2022-09-12T09:42:18.693Z,63.61
2022-09-12T09:45:24.504Z,61.63
2022-09-12T09:48:29.910Z,63.48
2022-09-12T09:51:37.268Z,66.92
2022-09-12T09:54:44.964Z,67.61
2022-09-12T09:57:47.830Z,67.91
2022-09-12T10:00:54.847Z,67.28
2022-09-12T10:03:59.491Z,67.65
2022-09-12T10:07:04.447Z,63.08
2022-09-12T10:10:07.803Z,62.58
2022-09-12T10:13:24.334Z,61.60
2022-09-12T10:16:35.608Z,61.62
2022-09-12T10:19:40.728Z,61.74
2022-09-12T10:22:48.293Z,62.89
2022-09-12T10:25:56.965Z,63.03
2022-09-12T10:29:04.757Z,61.26
2022-09-12T10:32:08.476Z,59.77
2022-09-12T10:35:23.752Z,58.78
2022-09-12T10:38:28.393Z,58.24
2022-09-12T10:41:38.338Z,60.85
2022-09-12T10:44:53.435Z,60.63
2022-09-12T10:48:05.525Z,61.24
2022-09-12T10:51:25.334Z,61.79
2022-09-12T10:54:28.816Z,62.88
2022-09-12T10:57:52.858Z,60.60
2022-09-12T11:01:02.438Z,56.61
2022-09-12T11:04:33.036Z,55.87
2022-09-12T11:07:35.599Z,55.12
2022-09-12T11:11:12.622Z,52.03
2022-09-12T11:14:25.330Z,54.50
2022-09-12T11:17:57.485Z,54.36
2022-09-12T11:21:17.704Z,57.35
2022-09-12T11:24:31.630Z,54.07
2022-09-12T11:27:46.083Z,52.10
2022-09-12T11:30:55.536Z,48.78
2022-09-12T11:33:59.522Z,49.36
2022-09-12T11:37:37.482Z,47.70
2022-09-12T11:40:57.052Z,44.96
2022-09-12T11:44:22.772Z,47.78
2022-09-12T11:47:25.612Z,45.68
2022-09-12T11:50:32.442Z,45.11
2022-09-12T11:53:39.128Z,42.90
2022-09-12T11:56:51.499Z,43.28
2022-09-12T11:59:58.810Z,41.85
2022-09-12T12:03:07.382Z,42.04
2022-09-12T12:06:22.060Z,42.81
2022-09-12T12:09:24.797Z,40.86
2022-09-12T12:12:29.169Z,40.72
2022-09-12T12:15:32.033Z,39.64
2022-09-12T12:18:37.915Z,42.18
2022-09-12T12:21:42.699Z,39.33
2022-09-12T12:24:55.215Z,41.35
2022-09-12T12:28:02.002Z,39.39
2022-09-12T12:31:05.599Z,41.42
2022-09-12T12:34:22.934Z,40.95
2022-09-12T13:03:02.985Z,40.70
2022-09-12T13:06:07.421Z,38.87
2022-09-12T13:09:51.912Z,39.84
2022-09-12T13:12:56.851Z,43.91
2022-09-12T13:15:59.510Z,46.11
2022-09-12T13:19:08.650Z,46.85
2022-09-12T13:22:11.219Z,47.90
2022-09-12T13:25:23.183Z,48.03
2022-09-12T13:28:27.223Z,48.46
2022-09-12T13:31:30.713Z,49.40
2022-09-12T13:35:12.365Z,49.61
2022-09-12T13:38:52.593Z,51.08
2022-09-12T13:42:32.340Z,52.42
2022-09-12T13:45:38.378Z,54.42
2022-09-12T13:48:41.344Z,54.76
2022-09-12T13:51:43.974Z,55.57
2022-09-12T13:54:50.492Z,55.30
2022-09-12T13:57:58.363Z,55.41
2022-09-12T14:01:10.027Z,56.30
2022-09-12T14:04:43.485Z,53.99
2022-09-12T14:07:55.342Z,52.93
2022-09-12T14:10:58.880Z,50.09
2022-09-12T14:14:05.353Z,50.74
2022-09-12T14:17:23.691Z,51.67
2022-09-12T14:20:33.292Z,51.06
2022-09-12T14:23:41.717Z,51.39
2022-09-12T14:26:45.080Z,50.35
2022-09-12T14:29:47.832Z,50.56
2022-09-12T14:33:12.466Z,47.81
2022-09-12T14:36:24.265Z,44.26
2022-09-12T14:39:32.939Z,42.38
2022-09-12T14:42:35.676Z,41.08
2022-09-12T14:45:40.142Z,42.09
2022-09-12T14:49:07.146Z,40.20
2022-09-12T14:52:22.241Z,39.82
2022-09-12T14:55:30.374Z,42.00
2022-09-12T14:58:33.578Z,44.46
2022-09-12T15:01:37.951Z,44.95
2022-09-12T15:04:52.676Z,45.37
2022-09-12T15:07:58.045Z,43.73
2022-09-12T15:11:06.692Z,43.61
2022-09-12T15:14:15.619Z,43.72
2022-09-12T15:17:18.339Z,45.52
2022-09-12T15:20:22.604Z,44.36
2022-09-12T15:23:47.177Z,44.92
2022-09-12T15:26:51.287Z,46.85
2022-09-12T15:29:54.084Z,47.62
2022-09-12T15:33:00.279Z,45.71
2022-09-12T15:36:13.583Z,44.20
2022-09-12T15:39:16.134Z,45.62
2022-09-12T15:42:28.412Z,47.20
2022-09-12T15:45:33.002Z,48.50
2022-09-12T15:48:36.062Z,48.85
2022-09-12T15:51:38.916Z,49.82
2022-09-12T15:54:41.720Z,50.32
2022-09-12T15:57:44.582Z,50.63
2022-09-12T16:00:47.180Z,50.92
2022-09-12T16:03:49.688Z,51.08
2022-09-12T16:06:54.731Z,51.62
2022-09-12T16:09:57.405Z,52.18
2022-09-12T16:13:00.198Z,52.81
2022-09-12T16:16:03.122Z,53.39
2022-09-12T16:19:05.724Z,54.02
2022-09-12T16:22:08.246Z,54.78
2022-09-12T16:25:10.893Z,55.86
2022-09-12T16:28:13.385Z,56.73
2022-09-12T16:31:16.102Z,57.61
2022-09-12T16:34:18.666Z,58.31
2022-09-12T16:37:21.438Z,59.38
2022-09-12T16:40:23.872Z,60.10
2022-09-12T16:43:26.417Z,60.77
2022-09-12T16:46:32.058Z,61.39
2022-09-12T16:49:34.830Z,62.95
2022-09-12T16:52:37.814Z,63.59
2022-09-12T16:55:40.409Z,65.26
2022-09-12T16:58:43.764Z,65.79
2022-09-12T17:01:46.428Z,66.06
2022-09-12T17:04:52.815Z,66.52
2022-09-12T17:07:55.467Z,68.29
2022-09-12T17:11:06.122Z,68.44
2022-09-12T17:14:10.922Z,68.79
2022-09-12T17:17:13.819Z,69.30
2022-09-12T17:20:16.401Z,70.16
2022-09-12T17:23:19.084Z,71.20
2022-09-12T17:26:22.315Z,71.81
2022-09-12T17:29:25.197Z,71.99
2022-09-12T17:32:27.792Z,73.25
2022-09-12T17:35:30.507Z,73.24
2022-09-12T17:38:34.937Z,73.63
2022-09-12T17:41:38.173Z,74.70
2022-09-12T17:44:41.829Z,75.07
2022-09-12T17:47:44.380Z,75.32
2022-09-12T17:50:48.116Z,75.56
2022-09-12T17:54:12.030Z,76.03
2022-09-12T17:57:14.936Z,76.68
2022-09-12T18:00:17.863Z,76.90
2022-09-12T18:03:24.472Z,77.31
2022-09-12T18:06:28.550Z,77.21
2022-09-12T18:09:31.135Z,78.08
2022-09-12T18:12:35.915Z,78.64
2022-09-12T18:15:38.622Z,78.77
2022-09-12T18:18:41.413Z,79.29
2022-09-12T18:21:44.158Z,79.45
2022-09-12T18:24:47.000Z,80.01
2022-09-12T18:27:50.031Z,80.63
2022-09-12T18:30:54.658Z,80.59
2022-09-12T18:33:59.962Z,80.58
2022-09-12T18:37:07.208Z,81.45
2022-09-12T18:40:10.477Z,81.73
2022-09-12T18:43:14.455Z,82.17
2022-09-12T18:46:18.936Z,82.39
2022-09-12T18:49:21.857Z,82.70
2022-09-12T18:52:26.074Z,82.70
2022-09-12T18:55:33.167Z,83.01
2022-09-12T18:58:36.677Z,83.59
2022-09-12T19:01:39.291Z,83.76
2022-09-12T19:04:41.996Z,83.18
2022-09-12T19:07:44.798Z,84.32
2022-09-12T19:10:56.655Z,84.05
2022-09-12T19:13:59.860Z,84.82
2022-09-12T19:17:02.837Z,84.43
2022-09-12T19:20:06.284Z,84.51
2022-09-12T19:23:08.841Z,84.65
2022-09-12T19:26:13.770Z,85.42
2022-09-12T19:29:16.829Z,84.98
2022-09-12T19:32:19.443Z,85.40
2022-09-12T19:35:21.982Z,85.69
2022-09-12T19:38:24.515Z,85.73
2022-09-12T19:41:27.895Z,86.13
2022-09-12T19:44:30.621Z,86.40
2022-09-12T19:47:34.576Z,86.48
2022-09-12T19:50:37.290Z,86.81
2022-09-12T19:53:40.996Z,86.65
2022-09-12T19:56:43.619Z,87.48
2022-09-12T19:59:46.407Z,87.76
2022-09-12T20:02:52.922Z,87.46
2022-09-12T20:06:02.281Z,87.36
2022-09-12T20:09:04.921Z,87.84
2022-09-12T20:12:08.023Z,87.73
2022-09-12T20:15:14.243Z,88.60
2022-09-12T20:18:16.791Z,89.53
2022-09-12T20:21:22.068Z,89.14
2022-09-12T20:24:24.595Z,89.07
2022-09-12T20:27:27.143Z,89.34
2022-09-12T20:30:31.007Z,89.20
2022-09-12T20:33:34.347Z,88.92
2022-09-12T20:36:36.831Z,88.96
2022-09-12T20:39:39.339Z,88.55
2022-09-12T20:42:42.470Z,88.69
2022-09-12T20:45:44.943Z,88.65
2022-09-12T20:48:47.488Z,89.14
2022-09-12T20:51:50.447Z,89.43
2022-09-12T20:54:52.992Z,89.06
2022-09-12T20:57:55.472Z,88.77
2022-09-12T21:00:57.892Z,89.25
2022-09-12T21:04:01.359Z,89.52
2022-09-12T21:07:03.769Z,89.57
2022-09-12T21:10:06.525Z,88.88
2022-09-12T21:13:10.409Z,89.43
2022-09-12T21:16:18.013Z,89.60
2022-09-12T21:19:20.582Z,90.24
2022-09-12T21:22:23.253Z,90.45
2022-09-12T21:25:25.804Z,90.36
2022-09-12T21:28:28.742Z,90.61
2022-09-12T21:31:31.268Z,91.37
2022-09-12T21:34:34.106Z,91.67
2022-09-12T21:37:36.561Z,91.69
2022-09-12T21:40:39.015Z,92.19
2022-09-12T21:43:42.067Z,91.40
2022-09-12T21:46:44.921Z,91.39
2022-09-12T21:49:47.333Z,91.43
2022-09-12T21:52:49.841Z,91.57
2022-09-12T21:56:00.955Z,91.64
2022-09-12T21:59:03.766Z,91.76
2022-09-12T22:02:08.724Z,92.09
2022-09-12T22:05:14.422Z,92.69
2022-09-12T22:08:18.024Z,92.23
2022-09-12T22:11:23.836Z,91.76
2022-09-12T22:14:26.497Z,91.83
2022-09-12T22:17:29.185Z,91.40
2022-09-12T22:20:32.226Z,92.13
2022-09-12T22:23:53.631Z,92.13
2022-09-12T22:26:57.299Z,92.02
2022-09-12T22:29:59.782Z,92.31
2022-09-12T22:33:02.359Z,92.51
2022-09-12T22:36:05.327Z,92.57
2022-09-12T22:39:08.641Z,92.63
2022-09-12T22:42:11.288Z,92.55
2022-09-12T22:45:13.947Z,92.64
2022-09-12T22:48:17.257Z,92.37
2022-09-12T22:51:19.968Z,92.35
2022-09-12T22:54:22.738Z,92.40
2022-09-12T22:57:25.647Z,92.11
2022-09-12T23:00:28.125Z,91.63
2022-09-12T23:03:30.696Z,91.96
2022-09-12T23:06:33.829Z,92.24
2022-09-12T23:09:36.474Z,92.16
2022-09-12T23:12:38.863Z,92.02
2022-09-12T23:15:41.606Z,92.08
2022-09-12T23:18:44.298Z,92.15
2022-09-12T23:21:46.738Z,92.45
2022-09-12T23:24:49.234Z,92.76
2022-09-12T23:27:52.091Z,93.01
2022-09-12T23:30:56.105Z,92.98
2022-09-12T23:34:02.076Z,92.50
2022-09-12T23:37:07.530Z,93.04
2022-09-12T23:40:10.629Z,93.09
2022-09-12T23:43:13.070Z,93.06
2022-09-12T23:46:16.664Z,93.24
2022-09-12T23:49:20.206Z,93.53
2022-09-12T23:52:22.663Z,93.61
2022-09-12T23:55:25.148Z,93.60
2022-09-12T23:58:28.012Z,93.24
